Time;durP1;ratioP1;P1;durP2;ratioP2;P2;SDS_P1;SDS_P2;PMS_P1;PMS_P2;Temp;Humidity;BMP_temperature;BMP_pressure;BME280_temperature;BME280_humidity;BME280_pressure;Samples;Min_cycle;Max_cycle;Signal;HPM_P1;HPM_P2
2020/12/25 00:02:23;;;;;;;3.45;1.40;;;;;;;4.59;60.65;101376.97;7914314;28;20537;-65
2020/12/25 00:06:14;;;;;;;5.53;1.75;;;;;;;4.60;60.66;101385.63;7914197;28;20152;-64
2020/12/25 00:10:05;;;;;;;3.15;1.65;;;;;;;4.60;60.46;101380.44;7912557;28;20089;-64
2020/12/25 00:13:55;;;;;;;4.38;1.15;;;;;;;4.59;60.72;101392.59;7913130;28;20042;-65
2020/12/25 00:17:46;;;;;;;4.05;1.50;;;;;;;4.58;60.47;101388.28;7912913;28;20125;-64
2020/12/25 00:21:37;;;;;;;3.78;1.60;;;;;;;4.60;60.73;101388.25;7914167;28;20110;-65
2020/12/25 00:25:28;;;;;;;2.90;1.05;;;;;;;4.58;60.46;101393.47;7914271;28;20157;-65
2020/12/25 00:29:18;;;;;;;7.47;1.80;;;;;;;4.58;60.52;101398.69;7896016;28;20034;-64
2020/12/25 00:33:09;;;;;;;6.53;1.80;;;;;;;4.59;60.46;101404.75;7912497;28;20042;-63
2020/12/25 00:37:00;;;;;;;2.17;1.15;;;;;;;4.57;60.51;101401.31;7913493;28;20030;-64
2020/12/25 00:40:50;;;;;;;3.15;1.42;;;;;;;4.59;60.38;101404.75;7913503;28;20072;-64
2020/12/25 00:44:42;;;;;;;3.53;1.50;;;;;;;4.59;60.45;101412.56;7912380;28;20548;-64
2020/12/25 00:48:32;;;;;;;2.95;1.30;;;;;;;4.62;60.42;101404.63;7911463;28;20404;-64
2020/12/25 00:52:26;;;;;;;5.82;1.55;;;;;;;4.60;60.46;101411.66;7912135;28;20042;-64
2020/12/25 00:56:17;;;;;;;5.55;1.80;;;;;;;4.60;60.66;101415.13;7909573;28;20034;-65
2020/12/25 01:00:12;;;;;;;5.18;1.85;;;;;;;4.57;60.37;101415.19;7895449;28;20035;-64
2020/12/25 01:04:03;;;;;;;7.07;1.88;;;;;;;4.55;60.34;101419.59;7897683;28;20131;-65
2020/12/25 01:07:54;;;;;;;3.22;2.03;;;;;;;4.57;60.04;101422.13;7881672;28;20042;-64
2020/12/25 01:11:44;;;;;;;3.00;1.75;;;;;;;4.55;60.37;101430.00;7882547;28;20038;-65
2020/12/25 01:15:35;;;;;;;6.63;1.55;;;;;;;4.51;60.29;101441.44;7896433;28;20692;-65
2020/12/25 01:19:26;;;;;;;4.35;1.70;;;;;;;4.52;60.15;101450.09;7881683;28;20073;-64
2020/12/25 01:23:16;;;;;;;3.83;1.10;;;;;;;4.50;60.12;101457.06;7898730;28;20347;-64
2020/12/25 01:27:07;;;;;;;2.15;1.20;;;;;;;4.49;60.13;101461.41;7912073;28;20407;-65
2020/12/25 01:30:59;;;;;;;5.47;1.30;;;;;;;4.47;60.16;101468.44;7912060;28;20073;-65
2020/12/25 01:34:49;;;;;;;3.53;1.50;;;;;;;4.47;60.23;101478.84;7927007;28;20038;-64
2020/12/25 01:38:40;;;;;;;3.10;1.27;;;;;;;4.46;60.22;101482.34;7912422;28;20044;-64
2020/12/25 01:42:33;;;;;;;4.35;1.80;;;;;;;4.44;60.20;101493.69;7911699;28;20125;-64
2020/12/25 01:46:23;;;;;;;5.82;1.45;;;;;;;4.41;60.11;101499.84;7910962;28;20074;-64
2020/12/25 01:50:14;;;;;;;5.45;2.15;;;;;;;4.37;59.96;101498.22;7912173;28;20053;-65
2020/12/25 01:54:06;;;;;;;2.60;1.20;;;;;;;4.35;60.02;101507.84;7912446;28;20450;-65
2020/12/25 01:57:58;;;;;;;2.80;1.05;;;;;;;4.33;60.13;101512.22;7911859;28;20035;-64
2020/12/25 02:01:49;;;;;;;4.47;1.08;;;;;;;4.29;60.08;101510.59;7911451;28;20078;-64
2020/12/25 02:05:42;;;;;;;7.90;2.67;;;;;;;4.25;60.05;101509.84;7912114;28;20125;-64
2020/12/25 02:09:33;;;;;;;4.82;1.10;;;;;;;4.21;59.82;101523.00;7911362;28;20034;-64
2020/12/25 02:13:23;;;;;;;6.28;1.17;;;;;;;4.19;59.90;101524.81;7916626;28;20046;-64
2020/12/25 02:17:14;;;;;;;5.85;1.10;;;;;;;4.20;59.89;101527.34;7916938;28;20522;-64
2020/12/25 02:21:05;;;;;;;6.55;1.77;;;;;;;4.20;60.04;101536.88;7917957;28;20121;-64
2020/12/25 02:24:55;;;;;;;6.38;1.25;;;;;;;4.19;59.94;101540.41;7917900;28;20038;-64
2020/12/25 02:28:46;;;;;;;2.30;1.00;;;;;;;4.18;59.88;101546.50;7917033;28;20074;-63
2020/12/25 02:32:37;;;;;;;10.82;1.23;;;;;;;4.15;59.74;101546.59;7916730;28;20042;-64
2020/12/25 02:36:27;;;;;;;5.70;1.98;;;;;;;4.15;59.98;101544.00;7916978;28;20558;-64
2020/12/25 02:40:18;;;;;;;3.05;1.55;;;;;;;4.14;59.97;101552.69;7916844;28;20037;-64
2020/12/25 02:44:08;;;;;;;6.93;1.55;;;;;;;4.11;59.65;101563.19;7917335;28;20118;-64
2020/12/25 02:47:59;;;;;;;2.40;0.93;;;;;;;4.09;59.85;101573.59;7919767;28;20039;-64
2020/12/25 02:51:50;;;;;;;3.33;1.20;;;;;;;4.05;59.92;101571.13;7913179;28;20050;-64
2020/12/25 02:55:41;;;;;;;3.28;1.27;;;;;;;4.01;59.80;101570.38;7916802;28;20038;-64
2020/12/25 02:59:32;;;;;;;2.47;1.10;;;;;;;4.00;59.74;101583.41;7916357;28;20084;-64
2020/12/25 03:03:22;;;;;;;3.78;1.33;;;;;;;3.97;59.69;101592.16;7916270;28;20048;-64
2020/12/25 03:07:13;;;;;;;6.43;1.50;;;;;;;3.96;59.92;101587.84;7915703;28;20030;-65
2020/12/25 03:11:04;;;;;;;2.30;0.73;;;;;;;3.96;59.68;101597.38;7915300;28;20124;-65
2020/12/25 03:14:55;;;;;;;2.45;1.52;;;;;;;3.96;59.76;101603.44;7916745;28;20065;-64
2020/12/25 03:18:45;;;;;;;2.70;1.05;;;;;;;3.94;60.04;101612.19;7914515;28;20107;-64
2020/12/25 03:22:36;;;;;;;5.90;1.30;;;;;;;3.91;60.11;101613.09;7929100;28;20042;-64
2020/12/25 03:26:26;;;;;;;4.25;1.83;;;;;;;3.86;59.78;101611.53;7915661;28;20038;-64
2020/12/25 03:30:17;;;;;;;5.82;1.40;;;;;;;3.79;59.58;101618.63;7915394;28;20496;-64
2020/12/25 03:34:08;;;;;;;5.93;1.58;;;;;;;3.73;59.61;101613.59;7916665;28;20131;-64
2020/12/25 03:37:58;;;;;;;6.75;1.13;;;;;;;3.68;59.61;101621.50;7930390;28;20037;-63
2020/12/25 03:41:49;;;;;;;3.38;1.10;;;;;;;3.60;59.25;101625.19;7915957;28;20430;-63
2020/12/25 03:45:39;;;;;;;3.22;1.08;;;;;;;3.55;59.22;101630.50;7915259;28;20495;-64
2020/12/25 03:49:30;;;;;;;2.92;1.15;;;;;;;3.52;59.60;101635.78;7914864;28;20046;-64
2020/12/25 03:53:20;;;;;;;3.65;1.75;;;;;;;3.41;59.21;101624.78;7915692;28;20026;-63
2020/12/25 03:57:12;;;;;;;4.28;1.58;;;;;;;3.39;59.16;101636.97;7914067;28;20038;-64
2020/12/25 04:01:03;;;;;;;8.60;1.83;;;;;;;3.34;59.32;101644.00;7915189;28;20100;-64
2020/12/25 04:04:53;;;;;;;7.68;1.70;;;;;;;3.28;59.52;101644.13;7915130;28;20193;-64
2020/12/25 04:08:45;;;;;;;6.88;1.50;;;;;;;3.23;59.30;101649.44;7914100;28;20388;-64
2020/12/25 04:12:35;;;;;;;4.72;1.40;;;;;;;3.18;59.65;101658.19;7914580;28;20034;-64
2020/12/25 04:16:26;;;;;;;4.47;1.35;;;;;;;3.14;59.38;101654.81;7914072;28;20491;-63
2020/12/25 04:20:16;;;;;;;3.13;1.17;;;;;;;3.09;59.11;101656.66;7914463;28;20149;-64
2020/12/25 04:24:07;;;;;;;4.32;1.63;;;;;;;3.06;59.37;101663.69;7922012;28;20034;-64
2020/12/25 04:27:58;;;;;;;7.70;1.08;;;;;;;3.00;59.40;101669.84;7913960;28;20039;-64
2020/12/25 04:31:48;;;;;;;6.47;1.92;;;;;;;2.98;58.98;101679.44;7913052;28;20530;-64
2020/12/25 04:35:39;;;;;;;6.35;1.30;;;;;;;2.94;59.30;101692.50;7928630;28;20034;-63
2020/12/25 04:39:30;;;;;;;9.85;1.38;;;;;;;2.91;59.44;101701.19;7928074;28;20065;-64
2020/12/25 04:43:25;;;;;;;4.15;1.45;;;;;;;2.87;59.03;101713.38;7912570;28;20042;-64
2020/12/25 04:47:15;;;;;;;6.90;2.63;;;;;;;2.83;59.23;101708.28;7909331;28;20069;-64
2020/12/25 04:51:06;;;;;;;3.75;1.10;;;;;;;2.80;59.08;101714.41;7913881;28;20121;-64
2020/12/25 04:54:57;;;;;;;5.80;1.10;;;;;;;2.77;59.03;101711.00;7913081;28;20061;-64
2020/12/25 04:58:49;;;;;;;4.85;1.83;;;;;;;2.74;58.73;101716.28;7928115;28;20038;-64
2020/12/25 05:02:39;;;;;;;4.97;2.03;;;;;;;2.70;59.28;101725.00;7927269;28;20042;-64
2020/12/25 05:06:30;;;;;;;1.75;1.00;;;;;;;2.64;59.09;101715.59;7911518;28;20034;-64
2020/12/25 05:10:21;;;;;;;2.83;1.40;;;;;;;2.61;59.03;101726.03;7912872;28;20070;-62
2020/12/25 05:14:12;;;;;;;5.63;1.10;;;;;;;2.51;58.81;101716.72;7911699;28;20088;-64
2020/12/25 05:18:06;;;;;;;3.63;1.25;;;;;;;2.53;59.01;101725.34;7911576;28;20088;-64
2020/12/25 05:21:58;;;;;;;5.45;1.20;;;;;;;2.50;59.01;101729.69;7912233;28;20038;-63
2020/12/25 05:25:49;;;;;;;7.05;2.40;;;;;;;2.45;59.30;101734.16;7912988;28;20549;-64
2020/12/25 05:29:41;;;;;;;2.92;1.25;;;;;;;2.38;58.93;101730.78;7911779;28;20062;-64
2020/12/25 05:33:33;;;;;;;4.18;1.80;;;;;;;2.37;58.94;101753.28;7927051;28;20204;-64
2020/12/25 05:37:34;;;;;;;4.25;1.50;;;;;;;2.36;59.13;101755.91;7911929;28;20062;-64
2020/12/25 05:41:25;;;;;;;5.80;1.50;;;;;;;2.35;59.07;101764.56;7927418;28;20037;-63
2020/12/25 05:45:20;;;;;;;4.68;1.95;;;;;;;2.40;59.41;101773.97;7912349;28;20042;-63
2020/12/25 05:49:11;;;;;;;7.07;1.45;;;;;;;2.45;59.38;101778.22;7932675;28;20406;-64
2020/12/25 05:53:02;;;;;;;3.03;1.30;;;;;;;2.50;59.12;101774.66;7917223;28;20467;-64
2020/12/25 05:56:58;;;;;;;5.05;2.13;;;;;;;2.55;59.33;101774.56;7917746;28;20046;-64
2020/12/25 06:00:50;;;;;;;1.35;1.08;;;;;;;2.59;59.51;101774.50;7917722;28;20045;-64
2020/12/25 06:04:41;;;;;;;8.68;1.52;;;;;;;2.64;59.18;101777.84;7918526;28;20054;-65
2020/12/25 06:08:37;;;;;;;3.67;1.33;;;;;;;2.66;59.76;101780.44;7917757;28;20423;-63
2020/12/25 06:12:40;;;;;;;3.58;1.70;;;;;;;2.65;59.37;101782.16;7917659;28;20057;-64
2020/12/25 06:16:31;;;;;;;3.58;1.40;;;;;;;2.64;59.77;101777.00;7917256;28;20454;-64
2020/12/25 06:20:25;;;;;;;2.63;1.33;;;;;;;2.62;59.67;101774.41;7917901;28;20065;-64
2020/12/25 06:24:18;;;;;;;3.65;1.65;;;;;;;2.61;59.13;101792.63;7917885;28;20076;-63
2020/12/25 06:28:08;;;;;;;7.07;1.30;;;;;;;2.61;59.56;101792.63;7932193;28;20433;-64
2020/12/25 06:32:03;;;;;;;6.20;1.33;;;;;;;2.59;59.63;101803.03;7917024;28;20594;-64
2020/12/25 06:35:57;;;;;;;9.18;1.83;;;;;;;2.59;59.37;101810.81;7916262;28;20030;-64
2020/12/25 06:39:53;;;;;;;2.92;1.42;;;;;;;2.58;59.62;101803.91;7916825;28;20491;-64
2020/12/25 06:43:43;;;;;;;4.57;1.48;;;;;;;2.57;59.73;101811.72;7917290;28;20046;-64
2020/12/25 06:47:36;;;;;;;7.60;1.40;;;;;;;2.56;59.74;101817.78;7913617;28;20052;-64
2020/12/25 06:51:27;;;;;;;6.53;1.42;;;;;;;2.55;59.63;101819.53;7916979;28;20454;-64
2020/12/25 06:55:20;;;;;;;4.75;1.60;;;;;;;2.56;59.54;101816.06;7913641;28;20514;-64
2020/12/25 06:59:16;;;;;;;3.38;1.20;;;;;;;2.57;59.76;101824.69;7916524;28;20049;-64
2020/12/25 07:03:13;;;;;;;3.22;1.50;;;;;;;2.56;59.26;101833.34;7930159;28;20038;-64
2020/12/25 07:07:09;;;;;;;4.60;1.17;;;;;;;2.56;59.25;101835.94;7915746;28;20034;-64
2020/12/25 07:11:01;;;;;;;9.55;2.13;;;;;;;2.55;59.72;101835.09;7916428;28;20069;-64
2020/12/25 07:14:51;;;;;;;4.00;1.10;;;;;;;2.56;59.71;101834.22;7916780;28;20069;-64
2020/12/25 07:18:42;;;;;;;6.10;1.30;;;;;;;2.54;59.58;101832.50;7907392;28;20027;-63
2020/12/25 07:22:33;;;;;;;5.93;1.60;;;;;;;2.56;59.50;101860.16;7904953;28;20092;-63
2020/12/25 07:26:23;;;;;;;1.92;1.02;;;;;;;2.57;59.80;101854.09;7915358;28;20041;-63
2020/12/25 07:30:14;;;;;;;2.55;1.23;;;;;;;2.57;59.45;101863.59;7914934;28;20034;-63
2020/12/25 07:34:05;;;;;;;1.58;1.00;;;;;;;2.60;59.47;101874.78;7910597;28;20056;-64
2020/12/25 07:37:56;;;;;;;2.75;0.85;;;;;;;2.61;59.40;101879.09;7903787;28;20436;-63
2020/12/25 07:41:47;;;;;;;9.40;1.50;;;;;;;2.63;59.52;101882.50;7892696;28;20049;-63
2020/12/25 07:45:40;;;;;;;3.03;0.90;;;;;;;2.64;60.02;101883.38;7884500;28;20039;-64
2020/12/25 07:49:31;;;;;;;5.57;1.33;;;;;;;2.63;59.57;101882.50;7929923;28;20038;-63
2020/12/25 07:53:21;;;;;;;3.13;1.10;;;;;;;2.62;59.58;101890.34;7915166;28;20240;-63
2020/12/25 07:57:12;;;;;;;1.92;1.17;;;;;;;2.58;60.00;101889.50;7912736;28;20027;-63
2020/12/25 08:01:03;;;;;;;5.35;1.10;;;;;;;2.55;59.81;101889.56;7913456;28;20052;-63
2020/12/25 08:04:53;;;;;;;3.13;1.30;;;;;;;2.50;60.02;101883.59;7915381;28;20507;-63
2020/12/25 08:08:46;;;;;;;4.28;1.35;;;;;;;2.49;59.46;101899.19;7913629;28;20096;-63
2020/12/25 08:12:37;;;;;;;3.10;1.00;;;;;;;2.47;59.76;101893.16;7914961;28;20448;-63
2020/12/25 08:16:30;;;;;;;3.65;1.08;;;;;;;2.45;59.35;101893.22;7913876;28;20061;-63
2020/12/25 08:20:22;;;;;;;5.15;1.65;;;;;;;2.43;59.79;101895.81;7913902;28;20026;-63
2020/12/25 08:24:13;;;;;;;6.97;2.25;;;;;;;2.41;59.37;101897.56;7914426;28;20061;-63
2020/12/25 08:28:03;;;;;;;9.68;2.63;;;;;;;2.42;59.33;101903.59;7913147;28;20837;-63
2020/12/25 08:32:05;;;;;;;4.40;2.00;;;;;;;2.43;59.37;101905.31;7914379;28;20129;-64
2020/12/25 08:35:56;;;;;;;4.25;2.10;;;;;;;2.42;59.42;101904.47;7914110;28;20034;-63
2020/12/25 08:39:47;;;;;;;8.57;2.85;;;;;;;2.43;59.72;101905.31;7912999;28;20072;-63
2020/12/25 08:43:37;;;;;;;1.98;1.10;;;;;;;2.43;60.00;101905.31;7914223;28;20044;-63
2020/12/25 08:47:28;;;;;;;3.58;1.05;;;;;;;2.45;59.74;101898.41;7912263;28;20054;-63
2020/12/25 08:51:19;;;;;;;4.22;1.60;;;;;;;2.49;59.96;101909.56;7913022;28;20030;-63
2020/12/25 08:55:11;;;;;;;2.35;1.13;;;;;;;2.50;59.81;101903.47;7910061;28;20038;-64
2020/12/25 08:59:04;;;;;;;3.30;0.98;;;;;;;2.53;60.04;101909.50;7882318;28;20117;-64
2020/12/25 09:02:56;;;;;;;3.53;1.00;;;;;;;2.58;59.85;101902.47;7898944;28;20559;-64
2020/12/25 09:06:50;;;;;;;6.03;1.25;;;;;;;2.68;59.92;101896.25;7909503;28;20034;-64
2020/12/25 09:10:41;;;;;;;1.20;0.80;;;;;;;2.79;60.11;101902.13;7928324;28;20064;-63
2020/12/25 09:14:31;;;;;;;4.38;1.15;;;;;;;2.96;60.39;101908.75;7913175;28;20482;-63
2020/12/25 09:18:22;;;;;;;2.90;1.08;;;;;;;3.08;60.45;101917.16;7912124;28;20042;-63
2020/12/25 09:22:12;;;;;;;6.57;2.05;;;;;;;3.17;60.73;101916.13;7911972;28;20112;-63
2020/12/25 09:26:06;;;;;;;2.08;1.15;;;;;;;3.29;60.79;101931.53;7912791;28;20147;-63
2020/12/25 09:29:56;;;;;;;3.83;0.98;;;;;;;3.34;60.81;101937.50;7912278;28;20092;-64
2020/12/25 09:33:47;;;;;;;4.15;0.98;;;;;;;3.39;60.56;101937.41;7926876;28;20111;-63
2020/12/25 09:37:38;;;;;;;2.25;1.15;;;;;;;3.41;60.84;101941.66;7912072;28;20118;-63
2020/12/25 09:41:28;;;;;;;7.07;1.02;;;;;;;3.45;60.50;101948.50;7911031;28;20049;-63
2020/12/25 09:45:19;;;;;;;4.32;1.00;;;;;;;3.46;60.93;101951.97;7912268;28;20438;-63
2020/12/25 09:49:09;;;;;;;3.13;1.27;;;;;;;3.48;60.47;101956.28;7911683;28;20495;-63
2020/12/25 09:53:00;;;;;;;2.95;1.00;;;;;;;3.50;60.77;101959.69;7911914;28;20117;-63
2020/12/25 09:56:51;;;;;;;3.60;1.30;;;;;;;3.53;60.35;101957.00;7911890;28;20091;-64
2020/12/25 10:00:41;;;;;;;9.65;1.58;;;;;;;3.59;60.72;101963.84;7911822;28;20396;-63
2020/12/25 10:04:32;;;;;;;4.25;1.25;;;;;;;3.64;60.49;101952.47;7912483;28;20042;-64
2020/12/25 10:08:23;;;;;;;5.55;1.58;;;;;;;3.68;60.22;101948.94;7912040;28;20038;-64
2020/12/25 10:12:13;;;;;;;5.47;1.27;;;;;;;3.72;60.35;101955.78;7912390;28;20113;-64
2020/12/25 10:16:04;;;;;;;6.90;1.50;;;;;;;3.75;60.41;101958.31;7911951;28;20582;-63
2020/12/25 10:19:54;;;;;;;4.47;1.70;;;;;;;3.76;60.22;101953.97;7911769;28;20122;-64
2020/12/25 10:23:45;;;;;;;1.73;1.25;;;;;;;3.80;60.33;101953.03;7911186;28;20068;-64
2020/12/25 10:27:36;;;;;;;3.55;1.23;;;;;;;3.85;60.53;101952.94;7926367;28;20062;-63
2020/12/25 10:31:26;;;;;;;6.57;2.05;;;;;;;3.89;60.20;101962.38;7911927;28;20034;-64
2020/12/25 10:35:17;;;;;;;3.13;1.05;;;;;;;3.90;59.98;101957.16;7918419;28;20844;-63
2020/12/25 10:39:11;;;;;;;4.93;1.10;;;;;;;3.92;60.47;101957.97;7916612;28;20671;-63
2020/12/25 10:43:01;;;;;;;4.78;1.15;;;;;;;3.93;60.46;101961.41;7907850;28;20027;-63
2020/12/25 10:46:58;;;;;;;1.95;0.88;;;;;;;3.90;60.19;101948.50;7895999;28;20046;-64
2020/12/25 10:50:48;;;;;;;6.88;1.20;;;;;;;3.88;60.12;101958.91;7915466;28;20614;-63
2020/12/25 10:54:39;;;;;;;2.75;0.98;;;;;;;3.82;60.47;101957.28;7931729;28;20636;-64
2020/12/25 10:58:30;;;;;;;1.40;1.00;;;;;;;3.81;60.12;101952.13;7916208;28;20061;-63
2020/12/25 11:02:20;;;;;;;4.35;1.60;;;;;;;3.85;60.38;101968.53;7912055;28;20046;-63
2020/12/25 11:06:11;;;;;;;3.95;1.00;;;;;;;3.91;60.41;101958.84;7930086;28;20110;-63
2020/12/25 11:10:02;;;;;;;5.25;1.00;;;;;;;4.01;60.35;101955.16;7913864;28;20057;-64
2020/12/25 11:13:54;;;;;;;2.75;1.30;;;;;;;4.07;60.32;101962.81;7914854;28;20034;-64
2020/12/25 11:17:45;;;;;;;7.15;1.63;;;;;;;4.18;60.26;101960.84;7914992;28;20726;-64
2020/12/25 11:21:36;;;;;;;2.28;1.30;;;;;;;4.25;60.43;101965.03;7916209;28;20072;-64
2020/12/25 11:25:26;;;;;;;6.18;1.45;;;;;;;4.28;60.24;101949.34;7916437;28;20038;-64
2020/12/25 11:29:17;;;;;;;5.97;1.38;;;;;;;4.34;60.33;101952.69;7930745;28;20060;-63
2020/12/25 11:33:07;;;;;;;2.65;1.10;;;;;;;4.39;60.27;101951.72;7915890;28;20121;-63
2020/12/25 11:36:58;;;;;;;8.43;1.35;;;;;;;4.38;60.26;101947.38;7915612;28;20038;-63
2020/12/25 11:40:49;;;;;;;4.82;1.55;;;;;;;4.44;60.05;101941.19;7931011;28;20446;-64
2020/12/25 11:44:39;;;;;;;5.53;1.50;;;;;;;4.45;60.32;101945.50;7915163;28;20160;-63
2020/12/25 11:48:30;;;;;;;3.83;1.15;;;;;;;4.46;60.14;101937.66;7914498;28;20046;-63
2020/12/25 11:52:21;;;;;;;3.95;1.30;;;;;;;4.49;60.19;101942.78;7915419;28;20065;-63
2020/12/25 11:56:12;;;;;;;3.60;1.13;;;;;;;4.52;60.03;101937.53;7914594;28;20101;-64
2020/12/25 12:00:03;;;;;;;9.30;1.48;;;;;;;4.49;60.02;101932.38;7914769;28;20026;-64
2020/12/25 12:03:55;;;;;;;6.40;1.90;;;;;;;4.47;59.99;101934.16;7913107;28;20076;-70
2020/12/25 12:07:46;;;;;;;5.00;1.27;;;;;;;4.44;59.98;101923.81;7911318;28;20049;-72
2020/12/25 12:11:41;;;;;;;2.45;1.15;;;;;;;4.41;59.98;101926.50;7915175;28;20037;-71
2020/12/25 12:15:39;;;;;;;2.45;1.00;;;;;;;4.36;59.84;101920.53;7913595;28;20706;-64
2020/12/25 12:19:30;;;;;;;10.18;2.35;;;;;;;4.31;59.87;101914.63;7904492;28;20065;-64
2020/12/25 12:23:20;;;;;;;2.58;1.35;;;;;;;4.27;59.83;101924.25;7928801;28;20070;-64
2020/12/25 12:27:11;;;;;;;4.28;1.88;;;;;;;4.22;59.99;101922.63;7913506;28;20034;-64
2020/12/25 12:31:03;;;;;;;8.55;1.98;;;;;;;4.21;59.89;101923.50;7912259;28;20038;-65
2020/12/25 12:34:53;;;;;;;9.50;1.55;;;;;;;4.17;60.01;101925.31;7906932;28;20030;-64
2020/12/25 12:38:44;;;;;;;4.30;1.38;;;;;;;4.17;60.01;101921.88;7909420;28;20064;-62
2020/12/25 12:42:34;;;;;;;2.00;1.02;;;;;;;4.15;60.02;101921.06;7913589;28;20041;-65
2020/12/25 12:46:25;;;;;;;5.72;1.35;;;;;;;4.16;60.21;101925.34;7912540;28;20041;-63
2020/12/25 12:50:16;;;;;;;6.40;1.20;;;;;;;4.20;60.08;101921.78;7910467;28;20034;-63
2020/12/25 12:54:06;;;;;;;6.38;1.23;;;;;;;4.28;60.21;101922.47;7913128;28;20045;-64
2020/12/25 12:57:57;;;;;;;4.10;1.08;;;;;;;4.40;60.16;101913.53;7911098;28;20022;-63
2020/12/25 13:01:47;;;;;;;3.30;0.90;;;;;;;4.51;60.32;101916.72;7927380;28;20538;-63
2020/12/25 13:05:38;;;;;;;4.10;1.60;;;;;;;4.59;60.36;101909.59;7912843;28;20088;-64
2020/12/25 13:09:29;;;;;;;2.47;0.73;;;;;;;4.60;60.10;101906.97;7911667;28;20114;-64
2020/12/25 13:13:20;;;;;;;5.18;1.35;;;;;;;4.63;59.95;101903.41;7910480;28;20121;-64
2020/12/25 13:17:10;;;;;;;4.03;1.23;;;;;;;4.61;59.82;101900.84;7912524;28;20042;-64
2020/12/25 13:21:01;;;;;;;3.47;0.95;;;;;;;4.65;60.07;101904.22;7911640;28;20451;-64
2020/12/25 13:24:52;;;;;;;4.78;0.90;;;;;;;4.65;59.73;101899.00;7912711;28;20038;-64
2020/12/25 13:28:43;;;;;;;4.78;1.17;;;;;;;4.69;59.82;101901.50;7911811;28;20695;-65
2020/12/25 13:32:33;;;;;;;5.78;0.90;;;;;;;4.72;59.59;101900.59;7926516;28;20069;-65
2020/12/25 13:36:24;;;;;;;2.58;0.90;;;;;;;4.74;59.38;101904.00;7911633;28;20038;-64
2020/12/25 13:40:15;;;;;;;1.50;0.95;;;;;;;4.72;59.57;101898.84;7912586;28;20505;-64
2020/12/25 13:44:06;;;;;;;3.95;1.17;;;;;;;4.68;59.30;101905.03;7912108;28;20499;-64
2020/12/25 13:47:56;;;;;;;2.85;0.98;;;;;;;4.64;59.51;101897.31;7910834;28;20042;-64
2020/12/25 13:51:47;;;;;;;1.80;0.93;;;;;;;4.63;59.31;101912.09;7911628;28;20126;-63
2020/12/25 13:55:37;;;;;;;3.55;1.67;;;;;;;4.63;59.35;101917.28;7911587;28;20042;-64
2020/12/25 13:59:28;;;;;;;1.95;1.00;;;;;;;4.61;59.38;101908.66;7911351;28;20034;-64
2020/12/25 14:03:18;;;;;;;3.75;0.98;;;;;;;4.62;59.01;101918.16;7911376;28;20054;-64
2020/12/25 14:07:09;;;;;;;2.88;0.90;;;;;;;4.62;59.45;101915.56;7911350;28;20042;-64
2020/12/25 14:11:00;;;;;;;1.85;0.80;;;;;;;4.63;59.29;101909.47;7915878;28;20755;-63
2020/12/25 14:14:50;;;;;;;6.53;1.20;;;;;;;4.64;59.37;101913.81;7913476;28;20053;-64
2020/12/25 14:18:43;;;;;;;4.80;1.05;;;;;;;4.65;59.14;101907.69;7916952;28;20137;-64
2020/12/25 14:22:34;;;;;;;2.67;1.23;;;;;;;4.69;59.12;101908.44;7916681;28;20097;-64
2020/12/25 14:26:25;;;;;;;2.75;1.00;;;;;;;4.70;59.08;101925.78;7932584;28;20048;-64
2020/12/25 14:30:16;;;;;;;6.57;1.00;;;;;;;4.65;58.93;101922.44;7892419;28;20035;-64
2020/12/25 14:34:06;;;;;;;3.00;1.00;;;;;;;4.62;59.20;101925.97;7910155;28;20084;-64
2020/12/25 14:37:57;;;;;;;4.28;0.90;;;;;;;4.61;58.99;101924.25;7914371;28;20049;-64
2020/12/25 14:41:47;;;;;;;3.35;1.00;;;;;;;4.60;58.72;101919.97;7909154;28;20129;-64
2020/12/25 14:45:38;;;;;;;3.10;0.93;;;;;;;4.59;58.84;101927.81;7910086;28;20037;-64
2020/12/25 14:49:29;;;;;;;4.80;1.02;;;;;;;4.56;59.05;101928.75;7915450;28;20078;-64
2020/12/25 14:53:19;;;;;;;5.75;1.20;;;;;;;4.54;58.85;101927.06;7910461;28;20056;-64
2020/12/25 14:57:10;;;;;;;1.30;0.80;;;;;;;4.52;58.79;101934.94;7917165;28;20060;-64
2020/12/25 15:01:01;;;;;;;3.97;1.25;;;;;;;4.50;58.87;101938.44;7916209;28;20042;-64
2020/12/25 15:04:51;;;;;;;4.85;1.08;;;;;;;4.43;59.08;101939.47;7917166;28;20128;-64
2020/12/25 15:08:42;;;;;;;3.95;1.50;;;;;;;4.39;58.56;101948.25;7916028;28;20084;-64
2020/12/25 15:12:33;;;;;;;5.25;1.60;;;;;;;4.33;58.58;101954.44;7917183;28;20133;-64
2020/12/25 15:16:24;;;;;;;7.97;2.20;;;;;;;4.29;58.83;101955.41;7930603;28;20058;-64
2020/12/25 15:20:15;;;;;;;5.55;1.35;;;;;;;4.24;58.48;101954.63;7894633;28;20119;-64
2020/12/25 15:24:05;;;;;;;1.33;0.90;;;;;;;4.19;58.60;101970.34;7908423;28;20080;-63
2020/12/25 15:27:56;;;;;;;3.67;0.90;;;;;;;4.14;58.42;101969.63;7914218;28;20038;-63
2020/12/25 15:31:50;;;;;;;6.25;2.03;;;;;;;4.07;59.21;101975.00;7914379;28;20046;-63
2020/12/25 15:35:41;;;;;;;2.50;1.50;;;;;;;4.02;58.74;101980.28;7916367;28;20045;-63
2020/12/25 15:39:32;;;;;;;5.57;1.70;;;;;;;3.97;58.69;101979.53;7915231;28;20117;-63
2020/12/25 15:43:22;;;;;;;2.95;1.42;;;;;;;3.94;58.49;101983.94;7916119;28;20038;-64
2020/12/25 15:47:13;;;;;;;2.38;1.05;;;;;;;3.88;58.69;101977.09;7914663;28;20043;-64
2020/12/25 15:51:04;;;;;;;3.08;1.10;;;;;;;3.85;58.29;102000.56;7924650;28;20043;-64
2020/12/25 15:54:54;;;;;;;4.32;1.73;;;;;;;3.82;58.49;101994.59;7889584;28;20475;-63
2020/12/25 15:58:45;;;;;;;7.28;1.73;;;;;;;3.76;58.50;101998.16;7883400;28;20034;-64
2020/12/25 16:02:36;;;;;;;1.35;1.10;;;;;;;3.73;58.15;101993.88;7900476;28;20046;-64
2020/12/25 16:06:30;;;;;;;2.55;1.15;;;;;;;3.72;58.27;101999.09;7901604;28;20042;-64
2020/12/25 16:10:21;;;;;;;6.25;1.35;;;;;;;3.69;58.31;102001.78;7901317;28;20046;-63
2020/12/25 16:14:12;;;;;;;4.00;1.58;;;;;;;3.64;58.51;102003.59;7901235;28;20125;-65
2020/12/25 16:18:03;;;;;;;3.13;1.20;;;;;;;3.61;58.60;102004.50;7900803;28;20038;-64
2020/12/25 16:21:54;;;;;;;4.97;1.60;;;;;;;3.59;58.22;102008.00;7915579;28;20062;-63
2020/12/25 16:25:44;;;;;;;3.25;1.42;;;;;;;3.55;58.24;102015.03;7897690;28;20030;-63
2020/12/25 16:29:35;;;;;;;4.85;1.98;;;;;;;3.51;58.15;102020.28;7900687;28;20034;-64
2020/12/25 16:33:26;;;;;;;5.95;2.00;;;;;;;3.48;58.24;102022.97;7897842;28;20046;-63
2020/12/25 16:37:17;;;;;;;10.32;2.58;;;;;;;3.45;58.24;102025.63;7897992;28;20038;-64
2020/12/25 16:41:11;;;;;;;5.72;1.50;;;;;;;3.41;58.24;102023.94;7899955;28;20038;-63
2020/12/25 16:45:05;;;;;;;5.25;2.53;;;;;;;3.39;58.14;102023.13;7900109;28;20827;-64
2020/12/25 16:48:55;;;;;;;4.35;2.08;;;;;;;3.33;58.19;102031.88;7899891;28;20054;-64
2020/12/25 16:52:46;;;;;;;4.35;1.92;;;;;;;3.32;58.08;102037.97;7912620;28;20038;-62
2020/12/25 16:56:41;;;;;;;5.07;2.58;;;;;;;3.29;58.57;102040.59;7900836;28;20108;-63
2020/12/25 17:00:31;;;;;;;4.93;2.17;;;;;;;3.23;58.17;102043.28;7898394;28;20034;-62
2020/12/25 17:04:22;;;;;;;8.73;2.17;;;;;;;3.21;58.69;102030.31;7899199;28;20036;-64
2020/12/25 17:08:12;;;;;;;7.88;2.35;;;;;;;3.18;58.19;102034.72;7896693;28;20034;-69
2020/12/25 17:12:03;;;;;;;6.28;2.25;;;;;;;3.15;58.18;102040.81;7899197;28;20049;-66
2020/12/25 17:15:54;;;;;;;6.20;1.90;;;;;;;3.12;58.36;102042.59;7913964;28;20046;-64
2020/12/25 17:19:45;;;;;;;6.63;2.00;;;;;;;3.08;58.42;102049.56;7880450;28;20088;-70
2020/12/25 17:23:36;;;;;;;4.55;1.90;;;;;;;3.06;58.23;102051.34;7897482;28;20042;-70
2020/12/25 17:27:27;;;;;;;6.95;1.95;;;;;;;3.02;58.55;102054.03;7897070;28;20038;-70
2020/12/25 17:31:18;;;;;;;3.22;1.70;;;;;;;3.00;58.38;102055.75;7899137;28;20058;-63
2020/12/25 17:35:10;;;;;;;6.00;2.00;;;;;;;2.98;58.75;102054.94;7913132;28;20065;-63
2020/12/25 17:39:02;;;;;;;8.68;1.90;;;;;;;2.96;58.41;102054.09;7894182;28;20062;-70
2020/12/25 17:42:52;;;;;;;5.00;1.88;;;;;;;2.95;58.50;102058.44;7895458;28;20475;-66
2020/12/25 17:46:43;;;;;;;4.88;1.48;;;;;;;2.94;58.67;102053.28;7876375;28;20034;-63
2020/12/25 17:50:34;;;;;;;3.33;1.30;;;;;;;2.90;58.20;102055.06;7894259;28;20045;-63
2020/12/25 17:54:25;;;;;;;4.65;1.70;;;;;;;2.89;58.71;102059.41;7895435;28;20846;-63
2020/12/25 17:58:15;;;;;;;4.80;1.75;;;;;;;2.87;58.63;102055.97;7912189;28;20034;-64
2020/12/25 18:02:06;;;;;;;5.25;1.70;;;;;;;2.87;58.20;102055.09;7897363;28;20056;-68
2020/12/25 18:05:56;;;;;;;5.13;1.50;;;;;;;2.86;58.68;102067.25;7879618;28;20471;-68
2020/12/25 18:09:47;;;;;;;6.68;2.13;;;;;;;2.85;58.56;102059.47;7891039;28;20968;-69